Time;durP1;ratioP1;P1;durP2;ratioP2;P2;SDS_P1;SDS_P2;PMS_P1;PMS_P2;Temp;Humidity;BMP_temperature;BMP_pressure;BME280_temperature;BME280_humidity;BME280_pressure;Samples;Min_cycle;Max_cycle;Signal;HPM_P1;HPM_P2
2021/09/20 00:00:06;;;;;;;5.60;2.90;;;;;;;10.85;86.27;101191.63;5086077;28;20568;-81
2021/09/20 00:02:34;;;;;;;6.30;2.63;;;;;;;10.88;85.80;101188.84;5078765;28;20071;-79
2021/09/20 00:05:04;;;;;;;7.72;3.03;;;;;;;10.85;85.05;101189.88;5067507;28;20058;-79
2021/09/20 00:07:31;;;;;;;5.18;2.60;;;;;;;10.80;86.16;101188.38;5085651;28;20063;-80
2021/09/20 00:09:58;;;;;;;8.52;2.42;;;;;;;10.81;84.89;101190.09;5062785;28;20130;-78
2021/09/20 00:12:26;;;;;;;3.75;2.33;;;;;;;10.74;85.50;101191.34;5103995;27;20133;-79
2021/09/20 00:14:53;;;;;;;4.05;2.13;;;;;;;10.78;84.96;101191.09;5102192;28;20038;-79
2021/09/20 00:17:20;;;;;;;3.50;2.50;;;;;;;10.76;84.25;101192.09;5113427;27;20158;-81
2021/09/20 00:19:48;;;;;;;4.70;2.78;;;;;;;10.83;83.73;101193.50;5098771;28;20143;-78
2021/09/20 00:22:15;;;;;;;10.23;2.70;;;;;;;10.82;83.03;101194.44;5090891;28;20101;-79
2021/09/20 00:24:43;;;;;;;4.05;2.13;;;;;;;10.90;82.43;101187.84;5084518;27;20094;-79
2021/09/20 00:27:11;;;;;;;6.28;2.40;;;;;;;10.77;82.17;101199.09;5103102;27;20662;-79
2021/09/20 00:29:39;;;;;;;5.47;2.67;;;;;;;10.85;81.04;101200.41;5087562;27;20436;-81
2021/09/20 00:32:06;;;;;;;4.45;2.58;;;;;;;10.92;81.08;101192.19;5052824;28;20090;-78
2021/09/20 00:34:33;;;;;;;6.28;2.58;;;;;;;10.83;80.83;101189.09;5099763;27;20638;-79
2021/09/20 00:37:01;;;;;;;5.85;2.50;;;;;;;10.95;80.76;101194.66;5080637;28;20124;-79
2021/09/20 00:39:28;;;;;;;8.20;2.70;;;;;;;10.87;81.93;101190.63;5096790;27;20354;-78
2021/09/20 00:41:55;;;;;;;6.50;3.15;;;;;;;10.76;83.34;101192.97;5087184;28;20296;-78
2021/09/20 00:44:22;;;;;;;6.75;2.55;;;;;;;10.89;83.51;101196.66;5064077;28;20052;-78
2021/09/20 00:46:49;;;;;;;8.30;3.40;;;;;;;10.86;84.22;101198.63;5073062;28;20039;-79
2021/09/20 00:49:17;;;;;;;10.23;3.20;;;;;;;10.87;84.67;101195.91;5067692;28;20090;-79
2021/09/20 00:51:44;;;;;;;6.60;3.08;;;;;;;10.76;85.72;101198.25;5093538;27;20141;-78
2021/09/20 00:54:12;;;;;;;6.32;2.60;;;;;;;10.76;86.32;101198.25;5097239;28;20056;-81
2021/09/20 00:56:39;;;;;;;6.68;2.80;;;;;;;10.85;86.21;101196.91;5086023;27;20048;-79
2021/09/20 00:59:07;;;;;;;4.93;3.10;;;;;;;10.72;87.12;101201.09;5069126;28;20084;-81
2021/09/20 01:01:36;;;;;;;7.18;3.65;;;;;;;10.65;86.90;101205.81;5082595;28;20428;-81
2021/09/20 01:04:03;;;;;;;8.77;3.10;;;;;;;10.75;86.65;101207.03;5067844;28;20508;-80
2021/09/20 01:06:30;;;;;;;7.90;3.72;;;;;;;10.74;87.20;101210.63;5083521;28;20557;-80
2021/09/20 01:08:57;;;;;;;6.47;3.35;;;;;;;10.73;87.43;101210.72;5101994;27;20047;-79
2021/09/20 01:11:25;;;;;;;6.15;3.40;;;;;;;10.84;86.78;101203.09;5088621;27;20048;-80
2021/09/20 01:13:52;;;;;;;5.85;3.10;;;;;;;10.76;87.02;101202.63;5043719;28;20537;-80
2021/09/20 01:16:19;;;;;;;6.43;2.97;;;;;;;10.74;86.89;101207.13;5063989;28;20070;-79
2021/09/20 01:18:47;;;;;;;5.05;3.22;;;;;;;10.71;87.31;101209.91;5080101;28;20063;-80
2021/09/20 01:21:15;;;;;;;6.75;3.20;;;;;;;10.68;87.57;101205.66;5067816;28;20052;-79
2021/09/20 01:23:43;;;;;;;7.28;3.28;;;;;;;10.77;87.68;101212.25;5061393;28;21152;-80
2021/09/20 01:26:12;;;;;;;6.35;2.95;;;;;;;10.82;86.93;101213.72;5080027;28;20058;-79
2021/09/20 01:28:39;;;;;;;7.72;3.10;;;;;;;10.70;87.50;101208.22;5062932;28;20138;-80
2021/09/20 01:31:07;;;;;;;6.25;3.20;;;;;;;10.61;88.53;101207.75;5060323;28;20082;-80
2021/09/20 01:33:35;;;;;;;6.20;3.22;;;;;;;10.71;88.29;101213.41;5087572;28;20134;-80
2021/09/20 01:36:02;;;;;;;5.15;3.15;;;;;;;10.64;88.89;101212.00;5076463;28;20061;-80
2021/09/20 01:38:29;;;;;;;10.55;3.35;;;;;;;10.60;88.59;101213.94;5071271;28;20139;-80
2021/09/20 01:40:56;;;;;;;6.75;3.10;;;;;;;10.57;88.75;101216.72;5064699;28;20084;-80
2021/09/20 01:43:23;;;;;;;6.85;2.60;;;;;;;10.58;88.52;101205.28;5080453;28;20503;-80
2021/09/20 01:45:51;;;;;;;7.60;3.15;;;;;;;10.77;87.75;101212.25;5064358;28;20130;-80
2021/09/20 01:48:18;;;;;;;6.25;3.20;;;;;;;10.76;87.59;101216.69;5083695;28;20477;-81
2021/09/20 01:50:46;;;;;;;10.30;3.10;;;;;;;10.67;88.02;101211.00;5074707;28;20039;-80
2021/09/20 01:53:14;;;;;;;6.50;3.50;;;;;;;10.73;87.55;101208.91;5052427;28;20048;-81
2021/09/20 01:55:41;;;;;;;7.80;3.72;;;;;;;10.79;87.38;101208.59;5062067;28;20466;-80
2021/09/20 01:58:09;;;;;;;5.35;3.03;;;;;;;10.78;88.37;101211.31;5047781;28;20063;-80
2021/09/20 02:00:36;;;;;;;6.68;3.22;;;;;;;10.82;87.50;101204.97;5066082;28;20131;-79
2021/09/20 02:03:03;;;;;;;6.70;3.63;;;;;;;10.68;88.52;101207.47;5089598;28;20154;-81
2021/09/20 02:05:31;;;;;;;7.55;3.58;;;;;;;10.72;88.27;101207.22;5095137;28;20143;-79
2021/09/20 02:07:58;;;;;;;7.43;4.07;;;;;;;10.58;89.05;101205.28;5093174;28;20056;-79
2021/09/20 02:10:25;;;;;;;5.90;3.58;;;;;;;10.72;89.13;101206.38;5079846;28;20394;-80
2021/09/20 02:12:52;;;;;;;5.30;3.85;;;;;;;10.61;89.76;101210.38;5081152;28;20138;-80
2021/09/20 02:15:20;;;;;;;10.52;3.65;;;;;;;10.46;90.89;101203.25;5080087;28;20158;-79
2021/09/20 02:17:47;;;;;;;8.07;3.15;;;;;;;10.42;91.24;101214.00;5106584;27;20130;-80
2021/09/20 02:20:14;;;;;;;7.18;4.13;;;;;;;10.52;90.97;101207.34;5085696;28;20466;-79
2021/09/20 02:22:41;;;;;;;6.82;3.90;;;;;;;10.48;91.32;101203.16;5079205;28;20040;-80
2021/09/20 02:25:09;;;;;;;6.05;3.60;;;;;;;10.71;89.80;101207.28;5079017;28;20446;-79
2021/09/20 02:27:37;;;;;;;7.82;4.13;;;;;;;10.69;89.76;101209.16;5056341;27;20175;-78
2021/09/20 02:30:06;;;;;;;8.55;4.32;;;;;;;10.51;91.32;101203.00;5081678;28;20044;-79
2021/09/20 02:32:34;;;;;;;5.57;3.45;;;;;;;10.51;91.02;101203.88;5080213;28;20131;-78
2021/09/20 02:35:02;;;;;;;6.20;3.50;;;;;;;10.44;91.72;101210.34;5070136;28;20044;-79
2021/09/20 02:37:30;;;;;;;8.65;3.90;;;;;;;10.58;90.69;101205.28;5089641;28;20159;-80
2021/09/20 02:39:57;;;;;;;13.27;3.55;;;;;;;10.61;90.51;101206.88;5099709;27;20241;-80
2021/09/20 02:42:24;;;;;;;8.25;3.88;;;;;;;10.58;90.62;101205.28;5103619;28;20056;-80
2021/09/20 02:44:52;;;;;;;6.57;3.13;;;;;;;10.57;90.88;101216.72;5083054;28;20595;-80
2021/09/20 02:47:19;;;;;;;6.68;3.50;;;;;;;10.58;90.75;101210.53;5085542;28;20143;-80
2021/09/20 02:49:46;;;;;;;8.35;4.03;;;;;;;10.57;90.96;101203.56;5082483;28;20118;-80
2021/09/20 02:52:13;;;;;;;6.68;3.65;;;;;;;10.43;91.68;101202.53;5073399;28;20521;-80
2021/09/20 02:54:40;;;;;;;10.88;4.07;;;;;;;10.47;92.01;101207.56;5062866;28;20054;-79
2021/09/20 02:57:07;;;;;;;15.57;4.68;;;;;;;10.64;91.29;101207.59;5095100;28;20039;-79
2021/09/20 02:59:35;;;;;;;8.82;3.80;;;;;;;10.54;91.55;101201.09;5066707;28;20048;-78
2021/09/20 03:02:02;;;;;;;7.72;3.70;;;;;;;10.70;90.91;101203.81;5066634;28;20058;-78
2021/09/20 03:04:29;;;;;;;6.80;3.38;;;;;;;10.61;91.32;101204.25;5100914;28;20058;-78
2021/09/20 03:06:57;;;;;;;4.10;3.15;;;;;;;10.66;90.56;101196.97;5066342;28;20158;-80
2021/09/20 03:09:24;;;;;;;9.60;4.50;;;;;;;10.52;90.40;101195.03;5099600;28;20135;-79
2021/09/20 03:11:51;;;;;;;5.55;3.40;;;;;;;10.63;90.04;101198.00;5060581;28;20143;-80
2021/09/20 03:14:18;;;;;;;6.10;3.75;;;;;;;10.57;90.01;101200.06;5064404;28;20585;-80
2021/09/20 03:16:45;;;;;;;11.73;3.58;;;;;;;10.57;89.85;101198.28;5087809;28;20105;-78
2021/09/20 03:19:13;;;;;;;6.45;3.45;;;;;;;10.48;89.85;101203.16;5079183;28;20450;-80
2021/09/20 03:21:40;;;;;;;10.05;4.07;;;;;;;10.47;90.54;101219.88;5070141;28;20151;-80
2021/09/20 03:24:10;;;;;;;7.63;4.00;;;;;;;10.70;89.93;101213.47;5077492;28;20104;-79
2021/09/20 03:26:37;;;;;;;9.93;3.75;;;;;;;10.53;90.44;101207.25;5090436;28;20048;-79
2021/09/20 03:29:04;;;;;;;5.63;3.78;;;;;;;10.39;92.70;101218.47;5064257;28;20150;-81
2021/09/20 03:31:31;;;;;;;8.85;4.85;;;;;;;10.38;93.18;101219.41;5087965;28;20580;-80
2021/09/20 03:33:59;;;;;;;10.57;4.43;;;;;;;10.46;93.05;101220.81;5089812;28;20120;-80
2021/09/20 03:36:26;;;;;;;8.18;4.85;;;;;;;10.63;91.83;101216.44;5069630;28;20135;-81
2021/09/20 03:38:53;;;;;;;8.98;4.15;;;;;;;10.64;91.11;101225.19;5068293;28;20548;-79
2021/09/20 03:41:21;;;;;;;24.33;4.63;;;;;;;10.45;91.96;101225.25;5083745;28;20135;-80
2021/09/20 03:43:48;;;;;;;7.15;3.88;;;;;;;10.41;92.38;101231.56;5091772;28;20493;-80
2021/09/20 03:46:15;;;;;;;8.95;4.85;;;;;;;10.40;93.06;101235.09;5100443;28;20111;-78
2021/09/20 03:49:07;;;;;;;8.02;4.15;;;;;;;10.52;92.71;101233.66;5050828;28;20050;-80
2021/09/20 03:51:35;;;;;;;10.05;4.25;;;;;;;10.56;91.46;101238.72;5051314;28;20040;-80
2021/09/20 03:54:04;;;;;;;10.10;4.03;;;;;;;10.38;92.74;101240.47;5082928;28;20079;-80
2021/09/20 03:56:31;;;;;;;5.88;4.88;;;;;;;10.54;92.71;101232.69;5091701;27;20156;-79
2021/09/20 03:58:59;;;;;;;11.73;4.20;;;;;;;10.70;91.38;101230.13;5082287;28;20355;-81
2021/09/20 04:01:26;;;;;;;7.32;3.97;;;;;;;10.52;91.46;101229.25;5101330;27;20085;-79
2021/09/20 04:03:53;;;;;;;8.48;5.03;;;;;;;10.54;91.64;101232.69;5072295;28;20652;-79
2021/09/20 04:06:20;;;;;;;11.00;4.68;;;;;;;10.45;91.93;101232.28;5088269;28;20518;-80
2021/09/20 04:08:48;;;;;;;8.00;3.90;;;;;;;10.38;93.10;101239.59;5070970;28;20055;-78
2021/09/20 04:11:15;;;;;;;9.95;3.45;;;;;;;10.44;92.72;101241.94;5083330;28;20130;-80
2021/09/20 04:13:42;;;;;;;6.63;3.65;;;;;;;10.43;92.10;101234.97;5085253;28;20044;-79
2021/09/20 04:16:09;;;;;;;8.77;4.28;;;;;;;10.57;90.98;101245.69;5083428;28;20063;-79
2021/09/20 04:18:37;;;;;;;8.35;4.53;;;;;;;10.49;92.13;101246.97;5062476;28;20286;-79
2021/09/20 04:21:04;;;;;;;10.50;4.43;;;;;;;10.45;92.63;101253.34;5084995;28;20056;-79
2021/09/20 04:23:31;;;;;;;8.43;4.65;;;;;;;10.63;92.42;101253.28;5064712;28;20048;-81
2021/09/20 04:25:58;;;;;;;8.80;4.43;;;;;;;10.59;91.27;101257.00;5065067;28;20067;-83
2021/09/20 04:28:27;;;;;;;6.90;4.97;;;;;;;10.52;92.55;101252.94;5066382;28;20048;-82
2021/09/20 04:30:56;;;;;;;9.02;3.63;;;;;;;10.51;91.60;101255.66;5076152;28;20150;-79
2021/09/20 04:33:25;;;;;;;8.77;4.25;;;;;;;10.54;91.20;101259.00;5083531;28;20051;-79
2021/09/20 04:35:53;;;;;;;8.57;4.15;;;;;;;10.42;92.42;101254.34;5060967;28;20784;-79
2021/09/20 04:38:21;;;;;;;8.63;4.13;;;;;;;10.43;92.19;101260.44;5063755;28;20059;-79
2021/09/20 04:40:50;;;;;;;9.15;4.15;;;;;;;10.34;92.78;101259.09;5072362;28;20536;-77
2021/09/20 04:43:18;;;;;;;5.85;4.00;;;;;;;10.23;93.36;101264.84;5104284;28;20048;-78
2021/09/20 04:45:46;;;;;;;11.57;3.65;;;;;;;10.28;93.48;101269.94;5041011;28;20058;-79
2021/09/20 04:48:13;;;;;;;7.93;3.35;;;;;;;10.30;93.37;101268.06;5100468;28;20603;-81
2021/09/20 04:50:45;;;;;;;12.18;3.92;;;;;;;10.23;94.08;101285.06;5072538;27;20089;-79
2021/09/20 04:53:15;;;;;;;11.57;4.30;;;;;;;10.18;94.20;101281.75;5089990;28;20083;-79
2021/09/20 04:55:45;;;;;;;8.77;3.30;;;;;;;10.48;92.91;101276.88;5081953;28;20107;-79
2021/09/20 04:58:13;;;;;;;7.40;4.03;;;;;;;10.52;92.86;101278.44;5099695;27;20123;-81
2021/09/20 05:00:41;;;;;;;8.27;3.75;;;;;;;10.38;93.46;101287.84;5076104;28;20499;-80
2021/09/20 05:03:10;;;;;;;7.88;3.35;;;;;;;10.30;94.29;101287.34;5077429;28;20059;-81
2021/09/20 05:05:39;;;;;;;5.90;3.53;;;;;;;10.26;95.38;101292.81;5068196;28;20146;-81
2021/09/20 05:08:07;;;;;;;8.40;3.88;;;;;;;10.38;94.52;101281.72;5105770;27;20043;-80
2021/09/20 05:10:38;;;;;;;8.57;3.90;;;;;;;10.51;94.69;101282.84;5096963;28;20538;-79
2021/09/20 05:13:08;;;;;;;8.13;3.47;;;;;;;10.55;93.91;101276.50;5067708;28;20048;-80
2021/09/20 05:15:36;;;;;;;7.85;4.03;;;;;;;10.49;94.50;101273.28;5072381;27;20130;-80
2021/09/20 05:18:04;;;;;;;5.10;3.38;;;;;;;10.67;93.16;101284.72;5087710;28;20043;-79
2021/09/20 05:20:31;;;;;;;9.10;3.70;;;;;;;10.56;93.95;101288.72;5082766;28;20067;-79
2021/09/20 05:22:58;;;;;;;9.55;3.35;;;;;;;10.50;94.47;101286.41;5100968;28;20150;-80
2021/09/20 05:25:31;;;;;;;6.53;3.58;;;;;;;10.61;93.71;101283.25;5081781;28;20090;-80
2021/09/20 05:27:58;;;;;;;6.25;3.17;;;;;;;10.64;93.43;101280.47;5086958;28;20039;-79
2021/09/20 05:30:28;;;;;;;13.65;5.55;;;;;;;10.59;94.46;101288.59;5070963;28;20092;-80
2021/09/20 05:32:56;;;;;;;11.80;4.22;;;;;;;10.67;93.54;101288.19;5088303;28;20092;-79
2021/09/20 05:35:27;;;;;;;9.77;3.67;;;;;;;10.67;94.17;101293.47;5062778;28;20535;-81
2021/09/20 05:37:55;;;;;;;9.52;4.03;;;;;;;10.60;94.69;101285.03;5107325;27;20047;-80
2021/09/20 05:40:28;;;;;;;12.50;4.45;;;;;;;10.67;95.00;101300.53;5069556;28;20114;-80
2021/09/20 05:42:57;;;;;;;10.48;4.50;;;;;;;10.87;93.61;101303.03;5074083;28;20186;-80
2021/09/20 05:45:25;;;;;;;7.20;3.85;;;;;;;10.81;93.51;101306.84;5052341;28;20035;-80
2021/09/20 05:47:52;;;;;;;6.40;3.53;;;;;;;11.02;91.13;101297.00;5068566;27;20105;-78
2021/09/20 05:50:21;;;;;;;9.23;3.75;;;;;;;10.98;91.86;101303.34;5099361;28;20094;-80
2021/09/20 05:52:48;;;;;;;10.02;3.97;;;;;;;10.96;91.98;101307.84;5082251;27;20313;-80
2021/09/20 05:55:16;;;;;;;6.95;3.80;;;;;;;11.09;91.26;101302.84;5081844;28;20142;-80
2021/09/20 05:57:44;;;;;;;8.38;4.38;;;;;;;11.12;90.75;101313.19;5086144;27;20138;-80
2021/09/20 06:00:13;;;;;;;9.13;4.15;;;;;;;11.21;91.09;101299.56;5078180;28;20051;-79
2021/09/20 06:02:44;;;;;;;8.75;4.10;;;;;;;11.18;90.96;101307.66;5060640;27;20092;-80
2021/09/20 06:05:14;;;;;;;8.32;4.03;;;;;;;11.16;91.00;101304.22;5085088;28;20104;-81
2021/09/20 06:07:42;;;;;;;9.27;4.70;;;;;;;11.15;91.30;101300.72;5069658;28;20047;-80
2021/09/20 06:10:11;;;;;;;10.73;4.28;;;;;;;11.21;90.50;101299.56;5079430;28;20320;-80
2021/09/20 06:12:38;;;;;;;10.15;4.20;;;;;;;11.36;89.07;101301.44;5059456;28;20044;-79
2021/09/20 06:15:07;;;;;;;15.02;3.60;;;;;;;11.41;89.38;101296.78;5052036;27;20086;-79
2021/09/20 06:17:35;;;;;;;8.52;3.60;;;;;;;11.57;88.36;101304.75;5087044;28;20587;-79
2021/09/20 06:20:04;;;;;;;11.00;3.35;;;;;;;11.65;87.19;101302.53;5061694;28;20075;-80
2021/09/20 06:22:37;;;;;;;8.45;4.05;;;;;;;11.54;87.64;101301.41;5052983;28;20067;-80
2021/09/20 06:25:15;;;;;;;8.98;4.32;;;;;;;11.48;87.81;101310.47;5067732;28;20107;-80
2021/09/20 06:27:42;;;;;;;7.72;4.18;;;;;;;11.72;87.38;101299.59;5078693;28;20116;-79
2021/09/20 06:30:11;;;;;;;9.90;3.70;;;;;;;11.98;85.64;101309.66;5068622;28;20048;-78
2021/09/20 06:32:39;;;;;;;9.80;3.42;;;;;;;11.78;84.83;101310.66;5092120;27;20390;-80
2021/09/20 06:35:07;;;;;;;8.55;3.30;;;;;;;12.27;83.10;101315.13;5082519;28;20078;-77
2021/09/20 06:37:35;;;;;;;5.18;3.35;;;;;;;12.33;82.17;101317.41;5089043;28;20083;-81
2021/09/20 06:40:06;;;;;;;13.70;3.53;;;;;;;12.42;80.17;101317.75;5067633;28;20541;-79
2021/09/20 06:42:33;;;;;;;7.03;3.75;;;;;;;12.42;81.42;101319.53;5066027;28;20151;-77
2021/09/20 06:45:01;;;;;;;14.73;4.10;;;;;;;12.16;82.55;101319.22;5096986;28;20067;-80
2021/09/20 06:47:29;;;;;;;10.20;4.05;;;;;;;12.51;81.45;101311.09;5080326;28;20147;-77
2021/09/20 06:49:56;;;;;;;9.23;4.53;;;;;;;12.69;79.45;101314.50;5048822;28;20568;-78
2021/09/20 06:52:32;;;;;;;;;;;;;;;12.67;78.50;101316.38;5086031;27;20179;-77
2021/09/20 06:55:00;;;;;;;10.55;3.83;;;;;;;12.96;78.33;101317.34;5062648;27;19919;-76
2021/09/20 06:57:28;;;;;;;19.00;4.63;;;;;;;13.24;76.05;101314.00;5085893;28;20055;-74
2021/09/20 06:59:56;;;;;;;8.38;3.67;;;;;;;12.82;77.79;101322.59;5096630;28;20043;-76
2021/09/20 07:02:24;;;;;;;7.43;4.20;;;;;;;13.31;76.62;101319.78;5084236;28;20043;-81
2021/09/20 07:04:52;;;;;;;8.55;4.03;;;;;;;13.47;75.60;101317.91;5041224;28;20466;-78
2021/09/20 07:07:20;;;;;;;6.28;3.58;;;;;;;13.53;75.11;101322.84;5096855;28;20065;-77
2021/09/20 07:09:48;;;;;;;12.15;4.40;;;;;;;13.57;75.89;101327.00;5077247;28;20052;-77
2021/09/20 07:12:22;;;;;;;;;;;;;;;13.64;74.71;101316.88;5102200;28;20485;-78
2021/09/20 07:14:49;;;;;;;17.98;4.57;;;;;;;13.74;75.09;101325.13;5087850;28;20026;-78
2021/09/20 07:17:18;;;;;;;8.60;4.13;;;;;;;13.56;73.81;101325.31;5100242;28;20146;-76
2021/09/20 07:19:54;;;;;;;8.70;3.30;;;;;;;13.32;74.92;101330.25;5074108;28;20398;-77
2021/09/20 07:22:22;;;;;;;6.68;3.75;;;;;;;13.90;72.91;101336.47;5083825;28;20089;-76
2021/09/20 07:24:49;;;;;;;8.98;4.63;;;;;;;14.22;71.88;101334.47;5071132;28;20071;-77
2021/09/20 07:27:16;;;;;;;13.70;3.63;;;;;;;14.12;71.43;101339.50;5088643;27;20133;-77
2021/09/20 07:29:43;;;;;;;8.88;4.00;;;;;;;14.56;70.17;101337.66;5084132;27;20126;-77
2021/09/20 07:32:11;;;;;;;12.45;3.63;;;;;;;14.34;70.87;101346.09;5075724;27;20047;-76
2021/09/20 07:34:38;;;;;;;8.68;3.67;;;;;;;14.96;68.91;101341.22;5081852;27;20564;-77
2021/09/20 07:37:06;;;;;;;9.38;3.60;;;;;;;15.07;67.39;101336.06;5085934;28;20104;-78
2021/09/20 07:39:33;;;;;;;8.85;3.30;;;;;;;15.48;65.80;101342.19;5066426;28;20544;-76
2021/09/20 07:42:02;;;;;;;10.40;3.22;;;;;;;15.54;65.37;101344.44;5105225;28;20122;-77
2021/09/20 07:44:29;;;;;;;9.93;3.78;;;;;;;15.58;64.04;101348.56;5090123;28;20081;-76
2021/09/20 07:46:56;;;;;;;6.40;3.00;;;;;;;15.70;64.01;101348.59;5102410;27;20047;-77
2021/09/20 07:49:23;;;;;;;7.15;3.13;;;;;;;15.57;64.24;101354.81;5062801;28;20162;-78
2021/09/20 07:51:50;;;;;;;5.95;3.25;;;;;;;15.77;63.92;101351.69;5065504;28;20151;-77
2021/09/20 07:54:18;;;;;;;9.65;3.17;;;;;;;16.25;62.10;101353.66;5062255;28;20055;-77
2021/09/20 07:56:45;;;;;;;4.93;3.03;;;;;;;16.58;60.72;101353.91;5082783;28;20101;-77
2021/09/20 07:59:12;;;;;;;11.88;3.28;;;;;;;16.35;60.66;101352.06;5072630;28;20066;-77
2021/09/20 08:01:40;;;;;;;7.88;3.20;;;;;;;16.32;60.97;101360.25;5078926;28;20047;-77
2021/09/20 08:04:08;;;;;;;7.80;2.63;;;;;;;16.37;60.97;101361.59;5080843;28;20040;-78
2021/09/20 08:06:35;;;;;;;6.28;3.42;;;;;;;16.18;59.29;101361.22;5095890;28;20039;-78
2021/09/20 08:09:02;;;;;;;7.78;3.40;;;;;;;16.47;59.35;101359.13;5079956;28;20565;-76
2021/09/20 08:11:30;;;;;;;8.50;3.70;;;;;;;18.17;54.59;101359.66;5088477;28;20072;-77
2021/09/20 08:13:57;;;;;;;13.23;3.33;;;;;;;18.89;52.46;101353.84;5080803;28;20512;-76
2021/09/20 08:16:24;;;;;;;3.45;2.08;;;;;;;18.19;51.39;101357.69;5071599;28;20123;-76
2021/09/20 08:18:51;;;;;;;3.78;2.42;;;;;;;17.40;54.25;101362.91;5066107;28;20104;-77
2021/09/20 08:21:19;;;;;;;7.78;3.53;;;;;;;17.10;55.68;101359.88;5104354;27;20048;-79
2021/09/20 08:23:46;;;;;;;3.83;2.30;;;;;;;17.43;53.40;101353.84;5053486;28;20052;-77
2021/09/20 08:26:13;;;;;;;5.03;2.80;;;;;;;16.99;55.40;101363.34;5084208;28;20274;-76
2021/09/20 08:28:41;;;;;;;6.95;2.53;;;;;;;16.83;55.66;101374.25;5096897;28;20113;-76
2021/09/20 08:31:08;;;;;;;3.95;2.42;;;;;;;16.65;55.34;101367.59;5084351;28;20131;-76
2021/09/20 08:33:35;;;;;;;5.13;2.70;;;;;;;16.56;56.26;101369.09;5081416;27;20105;-77
2021/09/20 08:36:03;;;;;;;10.00;3.05;;;;;;;16.20;57.09;101365.44;5079767;28;20067;-76
2021/09/20 08:38:30;;;;;;;7.60;2.88;;;;;;;15.90;57.93;101370.28;5063806;27;20287;-78
2021/09/20 08:40:57;;;;;;;6.07;3.13;;;;;;;15.53;59.24;101363.94;5065381;28;20052;-76
2021/09/20 08:43:25;;;;;;;5.72;3.65;;;;;;;16.18;57.90;101362.06;5063084;28;20134;-76
2021/09/20 08:45:52;;;;;;;8.52;3.25;;;;;;;16.67;56.77;101368.34;5055331;28;20434;-76
2021/09/20 08:48:20;;;;;;;9.98;3.05;;;;;;;16.76;56.01;101364.19;5080469;28;20121;-75
2021/09/20 08:50:47;;;;;;;6.65;2.35;;;;;;;17.23;55.29;101362.47;5101764;28;20074;-76
2021/09/20 08:53:14;;;;;;;7.25;2.92;;;;;;;17.15;55.05;101361.22;5094010;28;20135;-77
2021/09/20 08:55:42;;;;;;;8.35;2.70;;;;;;;17.63;53.58;101365.63;5068025;28;20481;-77
2021/09/20 08:58:09;;;;;;;7.90;2.63;;;;;;;17.67;53.19;101364.41;5084129;28;20094;-77
2021/09/20 09:00:37;;;;;;;7.80;2.75;;;;;;;17.63;52.15;101362.97;5105109;27;20158;-78
2021/09/20 09:03:05;;;;;;;10.68;3.08;;;;;;;17.52;52.57;101366.44;5064792;28;20073;-77
2021/09/20 09:05:33;;;;;;;7.93;2.83;;;;;;;16.86;54.22;101374.03;5078085;28;20093;-78
2021/09/20 09:08:03;;;;;;;3.63;2.08;;;;;;;17.19;51.38;101369.84;5080066;28;20562;-77
2021/09/20 09:10:33;;;;;;;7.90;3.08;;;;;;;17.03;51.90;101363.97;5050023;27;20661;-76
2021/09/20 09:13:05;;;;;;;6.35;3.30;;;;;;;16.66;53.43;101372.81;5075046;28;20100;-76
2021/09/20 09:15:33;;;;;;;6.40;2.88;;;;;;;16.38;55.15;101367.75;5082254;27;20604;-77
2021/09/20 09:18:02;;;;;;;9.00;3.53;;;;;;;16.96;54.83;101369.72;5062854;28;20387;-77
2021/09/20 09:20:35;;;;;;;5.30;2.67;;;;;;;17.32;53.15;101365.28;5059060;28;20100;-76
2021/09/20 09:23:04;;;;;;;8.80;2.88;;;;;;;17.49;51.44;101366.69;5101843;28;20108;-78
2021/09/20 09:25:38;;;;;;;7.45;2.58;;;;;;;17.33;52.95;101377.63;5068369;27;20105;-77
2021/09/20 09:28:22;;;;;;;5.53;2.63;;;;;;;17.07;53.44;101366.28;5108355;27;20056;-77
2021/09/20 09:30:53;;;;;;;7.53;3.25;;;;;;;16.87;52.85;101377.53;5081318;28;20043;-78
2021/09/20 09:33:23;;;;;;;7.43;2.58;;;;;;;17.72;51.36;101368.41;5083120;28;20055;-77
2021/09/20 09:35:53;;;;;;;6.68;2.92;;;;;;;18.26;50.32;101369.56;5096970;28;20048;-77
2021/09/20 09:38:21;;;;;;;5.43;2.58;;;;;;;16.97;51.39;101370.56;5064637;28;20154;-75
2021/09/20 09:40:52;;;;;;;5.90;2.45;;;;;;;16.57;52.61;101370.81;5082400;28;20360;-77
2021/09/20 09:43:27;;;;;;;4.83;2.47;;;;;;;16.43;53.13;101370.94;5078815;28;20633;-78
2021/09/20 09:45:59;;;;;;;5.35;1.98;;;;;;;16.71;52.73;101365.34;5082079;28;20565;-77
2021/09/20 09:48:30;;;;;;;5.00;2.67;;;;;;;16.33;53.98;101365.44;5075885;28;20415;-78
2021/09/20 09:50:59;;;;;;;6.47;2.60;;;;;;;16.30;54.35;101364.81;5044819;28;20048;-77
2021/09/20 09:53:31;;;;;;;2.83;2.17;;;;;;;16.40;53.76;101372.03;5080252;28;20059;-76
2021/09/20 09:56:19;;;;;;;5.05;3.00;;;;;;;15.93;55.04;101375.34;5073291;28;20159;-77
2021/09/20 09:58:52;;;;;;;6.13;2.83;;;;;;;15.44;56.35;101378.69;5071256;28;20070;-77
2021/09/20 10:01:22;;;;;;;5.93;2.88;;;;;;;15.51;55.86;101376.47;5084673;28;20048;-77
2021/09/20 10:04:22;;;;;;;3.53;2.42;;;;;;;15.20;56.97;101382.03;5071681;28;20108;-79
2021/09/20 10:06:53;;;;;;;5.32;2.83;;;;;;;15.32;58.39;101382.19;5082289;27;20509;-76
2021/09/20 10:09:23;;;;;;;4.78;2.50;;;;;;;15.29;57.36;101385.03;5082378;28;20047;-79
2021/09/20 10:11:53;;;;;;;4.85;2.35;;;;;;;15.15;57.10;101376.19;5084348;28;20383;-78
2021/09/20 10:14:21;;;;;;;4.60;2.60;;;;;;;15.08;58.25;101388.13;5078981;28;20044;-77
2021/09/20 10:16:51;;;;;;;5.30;2.58;;;;;;;14.69;59.11;101394.22;5065993;28;20471;-76
2021/09/20 10:19:19;;;;;;;4.95;3.17;;;;;;;14.66;59.45;101386.47;5096273;27;20079;-77
2021/09/20 10:21:47;;;;;;;7.20;2.92;;;;;;;14.61;60.24;101386.75;5103755;27;20119;-77
2021/09/20 10:24:16;;;;;;;4.68;2.35;;;;;;;14.62;59.66;101385.81;5076127;28;20494;-77
2021/09/20 10:26:44;;;;;;;9.98;3.75;;;;;;;14.42;60.60;101392.34;5084862;28;20111;-77
2021/09/20 10:29:13;;;;;;;4.07;2.67;;;;;;;14.55;59.40;101397.75;5074176;28;20151;-77
2021/09/20 10:31:41;;;;;;;5.97;2.80;;;;;;;14.64;60.45;101394.53;5053064;28;20109;-76
2021/09/20 10:34:18;;;;;;;4.80;2.80;;;;;;;14.63;60.15;101394.59;5082904;28;20059;-77
2021/09/20 10:36:53;;;;;;;8.82;2.90;;;;;;;14.73;60.04;101402.84;5105154;28;20067;-76
2021/09/20 10:39:57;;;;;;;6.60;2.78;;;;;;;14.83;59.49;101398.66;5060163;28;20051;-76
2021/09/20 10:42:36;;;;;;;16.33;2.92;;;;;;;14.94;59.60;101390.84;5006278;28;20140;-77
2021/09/20 10:45:07;;;;;;;7.07;3.28;;;;;;;14.94;58.85;101396.13;5055465;28;20131;-77
2021/09/20 10:47:45;;;;;;;6.15;2.92;;;;;;;15.06;58.83;101391.84;5080462;28;20051;-78
2021/09/20 10:50:13;;;;;;;7.80;2.80;;;;;;;15.28;58.27;101393.94;5076638;28;20456;-76
2021/09/20 10:53:14;;;;;;;8.63;3.45;;;;;;;15.53;56.85;101393.97;5098193;28;20051;-78
2021/09/20 10:56:03;;;;;;;4.50;2.53;;;;;;;15.53;57.69;101391.31;5084408;28;20097;-78
2021/09/20 10:58:43;;;;;;;5.40;2.90;;;;;;;15.52;57.76;101394.94;5096968;28;20036;-76
2021/09/20 11:01:10;;;;;;;5.47;2.70;;;;;;;15.64;57.83;101390.66;5094792;28;20195;-78
2021/09/20 11:03:40;;;;;;;6.38;2.80;;;;;;;15.80;56.87;101385.13;5102843;28;20044;-78
2021/09/20 11:06:25;;;;;;;6.55;2.17;;;;;;;15.87;57.25;101394.38;5096989;28;20467;-77
2021/09/20 11:08:59;;;;;;;6.53;2.90;;;;;;;15.91;57.60;101390.56;5079604;28;20146;-77
2021/09/20 11:11:41;;;;;;;9.20;3.42;;;;;;;16.00;57.91;101384.63;5106103;28;20118;-76
2021/09/20 11:14:15;;;;;;;7.10;2.72;;;;;;;15.97;56.82;101389.28;5065433;28;20360;-76
2021/09/20 11:16:55;;;;;;;7.53;3.15;;;;;;;15.90;56.93;101386.22;5082652;28;20101;-76
2021/09/20 11:19:24;;;;;;;7.57;3.10;;;;;;;15.78;58.28;101384.41;5054507;28;20052;-76
2021/09/20 11:22:14;;;;;;;6.70;2.85;;;;;;;16.16;56.86;101387.88;5076660;28;20048;-78
2021/09/20 11:24:46;;;;;;;10.23;3.42;;;;;;;16.15;56.79;101386.19;5080436;28;20062;-78
2021/09/20 11:27:25;;;;;;;7.55;3.10;;;;;;;16.30;57.09;101383.41;5061598;28;20144;-80
2021/09/20 11:29:56;;;;;;;5.28;2.95;;;;;;;16.36;55.64;101388.31;5053760;28;20054;-79
2021/09/20 11:32:26;;;;;;;6.70;2.83;;;;;;;16.24;56.30;101383.84;5105841;28;20051;-78